Time;durP1;ratioP1;P1;durP2;ratioP2;P2;SDS_P1;SDS_P2;PMS_P1;PMS_P2;Temp;Humidity;BMP_temperature;BMP_pressure;BME280_temperature;BME280_humidity;BME280_pressure;Samples;Min_cycle;Max_cycle;Signal;HPM_P1;HPM_P2
2022/12/24 00:01:39;;;;;;;1.23;0.60;;;;;;;12.33;100.00;95777.69;5028556;28;101863;-67
2022/12/24 00:04:06;;;;;;;0.50;0.50;;;;;;;12.91;100.00;95782.88;5029247;28;105134;-67
2022/12/24 00:06:33;;;;;;;0.40;0.40;;;;;;;13.16;100.00;95779.22;5030630;27;102863;-67
2022/12/24 00:09:00;;;;;;;0.40;0.40;;;;;;;13.12;100.00;95783.50;5034430;27;101942;-67
2022/12/24 00:11:27;;;;;;;0.40;0.40;;;;;;;13.23;100.00;95790.34;5029840;27;102514;-67
2022/12/24 00:13:55;;;;;;;0.33;0.33;;;;;;;13.20;100.00;95766.91;5031512;27;101913;-67
2022/12/24 00:16:24;;;;;;;1.33;0.43;;;;;;;13.06;100.00;95773.97;5030160;28;104050;-67
2022/12/24 00:18:51;;;;;;;0.77;0.50;;;;;;;13.05;100.00;95799.06;5028828;28;103678;-67
2022/12/24 00:21:18;;;;;;;0.30;0.30;;;;;;;13.11;100.00;95782.75;5031405;27;101963;-67
2022/12/24 00:23:45;;;;;;;0.40;0.40;;;;;;;13.16;100.00;95792.56;5030763;27;103017;-66
2022/12/24 00:26:12;;;;;;;0.30;0.30;;;;;;;13.28;100.00;95790.31;5034312;27;102615;-67
2022/12/24 00:28:39;;;;;;;0.43;0.43;;;;;;;13.25;100.00;95793.56;5033643;27;101830;-67
2022/12/24 00:31:14;;;;;;;1.20;0.53;;;;;;;13.26;100.00;95792.47;5036383;27;102387;-67
2022/12/24 00:33:45;;;;;;;0.43;0.40;;;;;;;13.25;100.00;95801.56;5032946;27;101972;-67
2022/12/24 00:36:12;;;;;;;0.50;0.50;;;;;;;13.22;100.00;95805.59;5032328;28;105536;-67
2022/12/24 00:38:39;;;;;;;0.50;0.50;;;;;;;13.11;100.00;95808.63;5031989;28;105758;-67
2022/12/24 00:41:23;;;;;;;0.40;0.40;;;;;;;13.09;100.00;95808.13;5034312;27;101837;-67
2022/12/24 00:43:50;;;;;;;0.73;0.53;;;;;;;13.08;100.00;95819.88;5034557;28;102661;-67
2022/12/24 00:46:17;;;;;;;0.77;0.70;;;;;;;12.99;100.00;95818.88;5032401;28;105553;-67
2022/12/24 00:48:46;;;;;;;0.70;0.50;;;;;;;12.97;100.00;95829.81;5032841;28;101964;-67
2022/12/24 00:51:14;;;;;;;0.40;0.33;;;;;;;12.98;100.00;95806.59;5032639;28;107111;-67
2022/12/24 00:53:41;;;;;;;1.03;0.40;;;;;;;12.98;100.00;95814.63;5037052;27;102607;-67
2022/12/24 00:56:09;;;;;;;0.30;0.30;;;;;;;12.87;100.00;95821.06;5034618;27;102328;-67
2022/12/24 00:58:36;;;;;;;0.30;0.30;;;;;;;12.77;100.00;95834.47;5033444;27;102786;-67
2022/12/24 01:01:04;;;;;;;0.50;0.50;;;;;;;12.66;100.00;95854.28;5032610;28;101886;-67
2022/12/24 01:03:35;;;;;;;0.57;0.57;;;;;;;12.64;100.00;95851.09;5034350;27;102879;-67
2022/12/24 01:06:03;;;;;;;1.50;0.50;;;;;;;12.71;100.00;95851.59;5033872;27;102641;-67
2022/12/24 01:08:31;;;;;;;0.57;0.50;;;;;;;12.62;100.00;95845.22;5033016;28;101893;-67
2022/12/24 01:10:58;;;;;;;0.40;0.40;;;;;;;12.62;100.00;95834.56;5032558;28;106757;-67
2022/12/24 01:13:26;;;;;;;1.23;0.60;;;;;;;12.65;100.00;95853.47;5033362;27;103152;-67
2022/12/24 01:15:53;;;;;;;1.53;0.63;;;;;;;12.60;100.00;95858.84;5035617;28;101982;-67
2022/12/24 01:18:21;;;;;;;0.83;0.60;;;;;;;12.59;100.00;95853.81;5033443;27;102634;-67
2022/12/24 01:20:57;;;;;;;0.60;0.40;;;;;;;12.79;100.00;95861.66;5032606;28;101921;-67
2022/12/24 01:23:26;;;;;;;0.40;0.40;;;;;;;12.78;100.00;95868.88;5033875;27;102308;-67
2022/12/24 01:25:53;;;;;;;0.50;0.50;;;;;;;12.66;100.00;95887.09;5033479;27;102624;-67
2022/12/24 01:28:20;;;;;;;0.67;0.40;;;;;;;12.66;100.00;95887.09;5032466;27;101817;-67
2022/12/24 01:30:48;;;;;;;0.97;0.40;;;;;;;12.65;100.00;95890.81;5033090;27;102391;-67
2022/12/24 01:33:16;;;;;;;0.97;0.60;;;;;;;12.55;100.00;95900.75;5033926;27;102811;-67
2022/12/24 01:35:44;;;;;;;0.60;0.53;;;;;;;12.53;100.00;95897.56;5032247;27;102158;-67
2022/12/24 01:38:12;;;;;;;0.50;0.50;;;;;;;12.57;100.00;95899.41;5035270;28;105294;-67
2022/12/24 01:43:34;;;;;;;0.53;0.50;;;;;;;12.65;100.00;95890.81;5034416;27;102544;-67
2022/12/24 01:46:03;;;;;;;0.60;0.40;;;;;;;12.70;100.00;95909.47;5033265;28;103119;-67
2022/12/24 01:48:39;;;;;;;1.17;0.60;;;;;;;12.72;100.00;95907.34;5033873;27;101969;-67
2022/12/24 01:51:15;;;;;;;0.77;0.50;;;;;;;12.83;100.00;95916.91;5034215;28;102173;-67
2022/12/24 01:53:49;;;;;;;0.93;0.80;;;;;;;12.76;100.00;95908.38;5033235;27;103222;-67
2022/12/24 01:56:19;;;;;;;0.73;0.60;;;;;;;12.80;100.00;95908.66;5033885;28;101765;-67
2022/12/24 01:58:50;;;;;;;0.57;0.53;;;;;;;12.93;100.00;95914.13;5031931;27;102383;-67
2022/12/24 02:01:18;;;;;;;1.80;0.70;;;;;;;12.92;100.00;95922.44;5036043;27;102818;-67
2022/12/24 02:03:45;;;;;;;1.40;0.90;;;;;;;13.05;100.00;95928.00;5033312;27;102288;-67
2022/12/24 02:06:15;;;;;;;0.80;0.50;;;;;;;13.02;100.00;95947.22;5033479;27;102512;-67
2022/12/24 02:08:42;;;;;;;1.10;0.70;;;;;;;12.96;100.00;95926.97;5032252;28;101860;-67
2022/12/24 02:11:15;;;;;;;0.53;0.53;;;;;;;12.87;100.00;95943.81;5031614;28;105863;-67
2022/12/24 02:13:48;;;;;;;1.13;0.60;;;;;;;12.89;100.00;95939.00;5031392;28;105115;-67
2022/12/24 02:16:31;;;;;;;1.40;0.60;;;;;;;12.77;100.00;95947.34;5033430;27;101707;-67
2022/12/24 02:19:06;;;;;;;0.97;0.50;;;;;;;12.78;100.00;95942.78;5032013;28;105302;-67
2022/12/24 02:21:48;;;;;;;0.80;0.60;;;;;;;12.71;100.00;95939.63;5035481;27;102029;-67
2022/12/24 02:24:42;;;;;;;0.80;0.60;;;;;;;12.58;100.00;95943.69;5032422;27;102932;-67
2022/12/24 02:27:24;;;;;;;2.37;0.60;;;;;;;12.58;100.00;95941.00;5032369;27;102746;-67
2022/12/24 02:30:11;;;;;;;1.00;0.70;;;;;;;12.48;100.00;95946.38;5031566;28;101775;-67
2022/12/24 02:33:00;;;;;;;0.70;0.60;;;;;;;12.51;100.00;95969.03;5027905;28;105066;-67
2022/12/24 02:35:36;;;;;;;1.07;0.60;;;;;;;12.55;100.00;95964.78;5032927;27;102644;-67
2022/12/24 02:38:08;;;;;;;1.07;0.63;;;;;;;12.54;100.00;95989.84;5033332;27;101858;-67
2022/12/24 02:40:40;;;;;;;0.63;0.60;;;;;;;12.46;100.00;95977.88;5065778;27;103929;-67
2022/12/24 02:43:12;;;;;;;0.63;0.63;;;;;;;12.53;100.00;95997.03;5031432;27;102866;-67
2022/12/24 02:45:46;;;;;;;0.90;0.60;;;;;;;12.51;100.00;95985.03;5035285;28;102271;-67
2022/12/24 02:48:17;;;;;;;0.77;0.77;;;;;;;12.51;100.00;95987.72;5032112;27;102671;-67
2022/12/24 02:50:56;;;;;;;1.03;0.60;;;;;;;12.36;100.00;95983.22;5032636;27;101947;-67
2022/12/24 02:53:23;;;;;;;1.23;0.80;;;;;;;12.37;100.00;95984.81;5031041;28;103539;-67
2022/12/24 02:56:04;;;;;;;1.40;0.90;;;;;;;12.27;100.00;95981.38;5031376;28;104972;-67
2022/12/24 02:58:43;;;;;;;1.27;0.70;;;;;;;12.18;100.00;95991.00;5032804;27;102102;-67
2022/12/24 03:01:21;;;;;;;1.23;0.70;;;;;;;12.08;100.00;95985.69;5031130;28;103926;-67
2022/12/24 03:04:07;;;;;;;1.70;0.80;;;;;;;11.98;100.00;95996.34;5031561;27;101868;-67
2022/12/24 03:06:51;;;;;;;0.80;0.80;;;;;;;11.91;100.00;95985.16;5032695;27;101770;-67
2022/12/24 03:09:25;;;;;;;0.60;0.60;;;;;;;11.86;100.00;95990.50;5034425;28;105130;-67
2022/12/24 03:11:59;;;;;;;0.80;0.80;;;;;;;11.89;100.00;95992.66;5031377;28;102193;-67
2022/12/24 03:14:28;;;;;;;0.93;0.60;;;;;;;11.83;100.00;95989.16;5031836;28;103499;-67
2022/12/24 03:16:59;;;;;;;0.70;0.60;;;;;;;11.97;100.00;95990.25;5030596;28;104141;-67
2022/12/24 03:19:27;;;;;;;1.10;0.70;;;;;;;11.99;100.00;95995.31;5031622;28;102075;-67
2022/12/24 03:21:58;;;;;;;0.60;0.60;;;;;;;12.03;100.00;95994.50;5031622;28;104903;-67
2022/12/24 03:24:25;;;;;;;1.93;0.80;;;;;;;11.94;100.00;96003.31;5030795;28;107054;-67
2022/12/24 03:26:53;;;;;;;1.53;0.70;;;;;;;11.94;100.00;96008.63;5031456;27;102213;-67
2022/12/24 03:29:20;;;;;;;0.70;0.70;;;;;;;11.89;100.00;96019.28;5033113;27;102853;-67
2022/12/24 03:31:50;;;;;;;1.03;0.80;;;;;;;11.84;100.00;96012.06;5035917;27;102637;-67
2022/12/24 03:34:19;;;;;;;0.60;0.60;;;;;;;11.91;100.00;96012.63;5032465;27;102338;-67
2022/12/24 03:36:47;;;;;;;1.10;1.00;;;;;;;11.82;100.00;96010.78;5032234;27;102579;-67
2022/12/24 03:39:14;;;;;;;0.73;0.73;;;;;;;11.76;100.00;96011.81;5032895;27;101789;-67
2022/12/24 03:41:41;;;;;;;0.73;0.73;;;;;;;11.79;100.00;96005.97;5031836;28;105251;-67
2022/12/24 03:44:08;;;;;;;1.23;0.80;;;;;;;11.72;100.00;95998.22;5030974;27;102610;-67
2022/12/24 03:46:35;;;;;;;0.60;0.60;;;;;;;11.81;100.00;96001.97;5032595;27;102323;-67
2022/12/24 03:49:02;;;;;;;1.13;0.80;;;;;;;11.70;100.00;95997.72;5032725;27;102554;-67
2022/12/24 03:51:33;;;;;;;1.97;0.93;;;;;;;11.92;100.00;96003.56;5030724;28;104428;-67
2022/12/24 03:54:01;;;;;;;0.73;0.70;;;;;;;11.88;100.00;96009.69;5034697;28;101797;-67
2022/12/24 03:56:28;;;;;;;1.10;1.00;;;;;;;11.84;100.00;96017.41;5032161;27;102545;-67
2022/12/24 03:58:55;;;;;;;0.80;0.73;;;;;;;11.88;100.00;96013.16;5033782;27;101904;-67
2022/12/24 04:01:21;;;;;;;0.70;0.70;;;;;;;11.76;100.00;96025.13;5036236;27;102873;-67
2022/12/24 04:03:48;;;;;;;0.70;0.70;;;;;;;11.70;100.00;96028.84;5035539;27;103339;-67
2022/12/24 04:06:18;;;;;;;0.60;0.60;;;;;;;11.74;100.00;96024.59;5036007;27;101831;-67
2022/12/24 04:08:47;;;;;;;1.23;0.60;;;;;;;11.72;100.00;96018.75;5035654;27;103502;-67
2022/12/24 04:11:16;;;;;;;0.63;0.63;;;;;;;11.65;100.00;96018.19;5032913;28;104084;-67
2022/12/24 04:13:44;;;;;;;1.10;0.80;;;;;;;11.62;100.00;96013.41;5034313;28;101982;-67
2022/12/24 04:16:14;;;;;;;1.00;0.60;;;;;;;11.47;100.00;96040.00;5037141;28;105237;-67
2022/12/24 04:18:42;;;;;;;3.07;1.03;;;;;;;11.53;100.00;96042.41;5035867;27;101816;-67
2022/12/24 04:21:11;;;;;;;1.00;0.90;;;;;;;11.46;100.00;96052.50;5033466;28;104468;-66
2022/12/24 04:23:41;;;;;;;0.70;0.70;;;;;;;11.48;100.00;96055.72;5033264;28;105673;-67
2022/12/24 04:26:11;;;;;;;0.97;0.70;;;;;;;11.42;100.00;96051.44;5033417;28;101976;-67
2022/12/24 04:28:39;;;;;;;0.67;0.53;;;;;;;11.38;100.00;96061.00;5035681;28;102532;-67
2022/12/24 04:31:09;;;;;;;0.80;0.80;;;;;;;11.40;100.00;96074.06;5034156;28;102761;-67
2022/12/24 04:33:37;;;;;;;0.70;0.70;;;;;;;11.44;100.00;96065.28;5033601;28;101971;-67
2022/12/24 04:36:06;;;;;;;2.20;0.90;;;;;;;11.41;100.00;96075.66;5038516;27;102408;-67
2022/12/24 04:38:34;;;;;;;0.80;0.80;;;;;;;11.46;100.00;96081.78;5034790;28;101811;-67
2022/12/24 04:41:04;;;;;;;1.07;0.90;;;;;;;11.51;100.00;96071.16;5017520;28;105364;-67
2022/12/24 04:43:33;;;;;;;1.37;0.93;;;;;;;11.58;100.00;96065.56;5034859;27;103042;-67
2022/12/24 04:46:05;;;;;;;1.27;0.80;;;;;;;11.60;100.00;96074.13;5033371;28;101880;-67
2022/12/24 04:48:33;;;;;;;2.23;0.90;;;;;;;11.47;100.00;96079.94;5033123;28;103719;-67
2022/12/24 04:51:02;;;;;;;0.87;0.87;;;;;;;11.45;100.00;96074.88;5033102;28;106731;-67
2022/12/24 04:53:29;;;;;;;2.00;0.87;;;;;;;11.56;100.00;96073.03;5031845;28;102044;-67
2022/12/24 04:55:56;;;;;;;2.03;0.80;;;;;;;11.64;100.00;96069.88;5032027;28;105689;-67
2022/12/24 04:58:24;;;;;;;1.63;1.00;;;;;;;11.73;100.00;96066.41;5035111;28;103776;-67
2022/12/24 05:00:53;;;;;;;0.60;0.60;;;;;;;11.59;100.00;96070.69;5034849;27;102363;-67
2022/12/24 05:03:20;;;;;;;1.07;0.90;;;;;;;11.65;100.00;96071.47;5032215;28;104065;-67
2022/12/24 05:05:47;;;;;;;1.30;0.83;;;;;;;11.61;100.00;96073.88;5035558;27;101701;-67
2022/12/24 05:08:15;;;;;;;1.80;0.80;;;;;;;11.56;100.00;96081.03;5032751;27;101877;-67
2022/12/24 05:10:42;;;;;;;0.90;0.67;;;;;;;11.52;100.00;96078.09;5033113;27;102540;-67
2022/12/24 05:13:09;;;;;;;0.80;0.80;;;;;;;11.68;100.00;96086.94;5033503;28;102099;-67
2022/12/24 05:15:36;;;;;;;0.50;0.50;;;;;;;11.66;100.00;96083.75;5033802;27;102801;-67
2022/12/24 05:18:04;;;;;;;1.50;1.00;;;;;;;11.09;100.00;96083.81;5029966;28;106163;-67
2022/12/24 05:20:31;;;;;;;1.60;1.40;;;;;;;10.65;100.00;96089.72;5035936;28;101835;-67
2022/12/24 05:28:24;;;;;;;1.40;1.30;;;;;;;10.19;100.00;96093.16;5032820;28;105552;-67
2022/12/24 05:30:52;;;;;;;1.43;1.20;;;;;;;10.13;100.00;96100.28;5031842;28;105304;-67
2022/12/24 05:33:21;;;;;;;1.60;1.50;;;;;;;9.97;100.00;96095.84;5034502;27;102305;-67
2022/12/24 05:35:48;;;;;;;1.20;1.20;;;;;;;9.85;100.00;96097.06;5032652;28;105736;-67
2022/12/24 05:38:15;;;;;;;1.30;1.20;;;;;;;9.79;100.00;96093.59;5032533;28;105345;-67
2022/12/24 05:40:42;;;;;;;1.43;1.30;;;;;;;9.76;100.00;96111.88;5033231;28;101927;-67
2022/12/24 05:43:08;;;;;;;2.30;1.40;;;;;;;9.68;100.00;96099.03;5036807;27;101794;-67
2022/12/24 05:45:35;;;;;;;1.80;1.60;;;;;;;9.65;100.00;96094.25;5032020;28;101760;-67
2022/12/24 05:48:03;;;;;;;1.40;1.30;;;;;;;9.65;100.00;96110.19;5014822;28;105059;-67
2022/12/24 05:50:31;;;;;;;1.50;1.40;;;;;;;9.61;100.00;96101.09;5030123;28;105672;-67
2022/12/24 05:53:05;;;;;;;3.50;1.80;;;;;;;9.56;100.00;96114.31;5031858;28;102016;-67
2022/12/24 05:55:32;;;;;;;1.73;1.63;;;;;;;9.52;100.00;96121.19;5032315;28;102698;-67
2022/12/24 05:57:59;;;;;;;1.77;1.63;;;;;;;9.48;100.00;96130.72;5029870;28;103896;-67
2022/12/24 06:00:26;;;;;;;2.10;1.50;;;;;;;9.47;100.00;96147.66;5030604;28;102114;-67
2022/12/24 06:02:52;;;;;;;1.70;1.60;;;;;;;9.55;100.00;96145.38;5030672;28;105070;-67
2022/12/24 06:05:19;;;;;;;1.97;1.40;;;;;;;9.72;100.00;96156.72;5033013;28;105283;-67
2022/12/24 06:07:48;;;;;;;1.53;1.43;;;;;;;9.73;100.00;96174.25;5030912;28;105704;-67
2022/12/24 06:10:15;;;;;;;1.93;1.80;;;;;;;9.63;100.00;96168.03;5029927;28;104996;-67
2022/12/24 06:12:42;;;;;;;2.80;2.50;;;;;;;9.88;100.00;96166.41;5031880;27;101752;-67
2022/12/24 06:15:10;;;;;;;1.77;1.60;;;;;;;9.72;100.00;96158.56;5031759;27;102325;-67
2022/12/24 06:17:37;;;;;;;1.73;0.80;;;;;;;10.07;100.00;96150.94;5031845;27;102590;-67
2022/12/24 06:20:05;;;;;;;0.60;0.60;;;;;;;10.55;100.00;96151.63;5031972;28;101922;-67
2022/12/24 06:22:33;;;;;;;1.27;0.70;;;;;;;10.84;100.00;96163.50;5031668;27;105338;-67
2022/12/24 06:25:02;;;;;;;0.60;0.60;;;;;;;11.15;100.00;96154.63;5031986;28;103178;-67
2022/12/24 06:27:29;;;;;;;0.63;0.63;;;;;;;11.24;100.00;96154.94;5037120;27;102012;-67
2022/12/24 06:29:56;;;;;;;0.73;0.57;;;;;;;11.21;100.00;96166.91;5031920;27;102568;-67
2022/12/24 06:32:23;;;;;;;1.03;0.53;;;;;;;11.16;100.00;96176.72;5030081;28;101933;-67
2022/12/24 06:34:50;;;;;;;0.90;0.60;;;;;;;11.26;100.00;96174.09;5030227;28;105232;-67
2022/12/24 06:37:18;;;;;;;0.30;0.30;;;;;;;11.30;100.00;96180.50;5029638;28;105841;-67
2022/12/24 06:39:45;;;;;;;0.60;0.60;;;;;;;11.18;100.00;96183.38;5030801;27;102010;-67
2022/12/24 06:42:18;;;;;;;0.40;0.40;;;;;;;11.22;100.00;96173.00;5031469;28;102451;-67
2022/12/24 06:44:45;;;;;;;0.43;0.40;;;;;;;11.18;100.00;96166.63;5028950;28;105289;-67
2022/12/24 06:47:12;;;;;;;0.30;0.30;;;;;;;11.23;100.00;96170.09;5034446;27;101785;-67
2022/12/24 06:49:39;;;;;;;0.83;0.50;;;;;;;11.17;100.00;96167.69;5028885;28;105686;-67
2022/12/24 06:52:06;;;;;;;0.40;0.40;;;;;;;11.22;100.00;96183.66;5012727;28;102019;-67
2022/12/24 06:54:32;;;;;;;1.27;0.50;;;;;;;11.29;100.00;96187.69;5029307;28;104936;-67
2022/12/24 06:56:59;;;;;;;0.50;0.50;;;;;;;11.33;100.00;96188.00;5028864;28;105036;-67
2022/12/24 06:59:28;;;;;;;0.57;0.47;;;;;;;11.28;100.00;96193.28;5029491;28;102111;-67
2022/12/24 07:01:55;;;;;;;0.40;0.40;;;;;;;11.19;100.00;96210.81;5029838;28;105308;-67
2022/12/24 07:04:22;;;;;;;0.70;0.70;;;;;;;11.09;100.00;96206.22;5029511;28;104926;-67
2022/12/24 07:06:49;;;;;;;0.40;0.40;;;;;;;11.10;100.00;96212.34;5029208;28;101860;-67
2022/12/24 07:09:16;;;;;;;0.40;0.40;;;;;;;11.06;100.00;96204.06;5032058;28;105159;-67
2022/12/24 07:11:42;;;;;;;0.70;0.40;;;;;;;11.01;100.00;96219.22;5029330;28;101783;-67
2022/12/24 07:14:09;;;;;;;0.60;0.60;;;;;;;10.92;100.00;96231.38;5031224;27;102258;-67
2022/12/24 07:16:38;;;;;;;0.50;0.50;;;;;;;10.84;100.00;96229.22;5030681;27;102581;-67
2022/12/24 07:19:05;;;;;;;0.60;0.60;;;;;;;10.74;100.00;96223.81;5028875;28;102241;-67
2022/12/24 07:21:32;;;;;;;2.43;0.90;;;;;;;10.68;100.00;96219.53;5030316;27;102826;-68
2022/12/24 07:23:59;;;;;;;1.80;1.70;;;;;;;10.71;100.00;96216.34;5027674;28;105316;-68
2022/12/24 07:26:26;;;;;;;2.33;1.10;;;;;;;10.64;100.00;96234.38;5028007;28;102086;-68
2022/12/24 07:28:53;;;;;;;0.60;0.60;;;;;;;10.62;100.00;96215.19;5029606;28;105244;-68
2022/12/24 07:31:20;;;;;;;1.50;0.90;;;;;;;10.56;100.00;96217.03;5031803;28;105530;-68
2022/12/24 07:33:49;;;;;;;2.83;1.97;;;;;;;10.51;100.00;96224.16;5028013;28;105222;-68
2022/12/24 07:36:20;;;;;;;2.33;2.10;;;;;;;10.44;100.00;96236.84;5028074;28;105372;-68
2022/12/24 07:38:47;;;;;;;3.00;2.00;;;;;;;10.41;100.00;96232.06;5028334;28;102250;-68
2022/12/24 07:41:14;;;;;;;2.27;1.83;;;;;;;10.40;100.00;96233.91;5028407;28;105121;-68
2022/12/24 07:43:41;;;;;;;5.03;2.83;;;;;;;10.36;100.00;96232.00;5027442;28;106136;-68
2022/12/24 07:46:08;;;;;;;2.43;2.10;;;;;;;10.42;100.00;96242.41;5028287;28;101928;-68
2022/12/24 07:48:35;;;;;;;5.90;4.00;;;;;;;10.47;100.00;96245.13;5027939;28;104799;-68
2022/12/24 07:51:04;;;;;;;0.90;0.90;;;;;;;10.53;100.00;96230.03;5027636;28;105442;-68
2022/12/24 07:53:31;;;;;;;2.03;0.90;;;;;;;10.52;100.00;96217.81;5031594;28;102185;-68
2022/12/24 07:55:59;;;;;;;7.03;3.70;;;;;;;10.52;100.00;96241.72;5027795;28;105844;-68
2022/12/24 07:58:26;;;;;;;2.17;1.90;;;;;;;10.56;100.00;96253.44;5028405;28;102300;-68
2022/12/24 08:00:56;;;;;;;2.50;1.40;;;;;;;10.59;100.00;96258.25;5027993;28;103743;-68
2022/12/24 08:03:23;;;;;;;3.90;2.43;;;;;;;10.61;100.00;96267.59;5027528;28;105582;-68
2022/12/24 08:05:51;;;;;;;1.07;0.90;;;;;;;10.68;100.00;96273.50;5028252;28;102040;-68
2022/12/24 08:08:20;;;;;;;1.63;1.00;;;;;;;10.70;100.00;96270.59;5028241;28;105261;-68
2022/12/24 08:10:47;;;;;;;1.27;1.20;;;;;;;10.78;100.00;96267.44;5027209;28;105852;-68
2022/12/24 08:13:14;;;;;;;1.73;0.80;;;;;;;10.78;100.00;96278.09;5029446;28;101943;-68
2022/12/24 08:15:42;;;;;;;1.10;1.00;;;;;;;10.71;100.00;96278.31;5030649;28;105694;-68
2022/12/24 08:18:09;;;;;;;0.70;0.70;;;;;;;10.71;100.00;96280.16;5027836;28;101889;-68
2022/12/24 08:20:38;;;;;;;1.60;1.27;;;;;;;10.73;100.00;96281.53;5029330;28;102391;-68
2022/12/24 08:23:05;;;;;;;2.10;1.53;;;;;;;10.77;100.00;96287.13;5027262;28;104621;-68
2022/12/24 08:25:34;;;;;;;1.13;0.90;;;;;;;10.79;100.00;96279.72;5027625;28;102171;-68
2022/12/24 08:28:01;;;;;;;0.93;0.90;;;;;;;10.79;100.00;96285.03;5027600;28;102493;-68
2022/12/24 08:30:28;;;;;;;0.93;0.67;;;;;;;10.80;100.00;96276.78;5028576;27;102564;-68
2022/12/24 08:32:56;;;;;;;0.60;0.60;;;;;;;10.83;100.00;96284.25;5028841;27;102078;-68
2022/12/24 08:35:23;;;;;;;0.63;0.63;;;;;;;10.79;100.00;96291.13;5027875;28;103603;-68
2022/12/24 08:37:50;;;;;;;1.47;0.80;;;;;;;10.79;100.00;96285.03;5030642;27;101901;-68
2022/12/24 08:40:17;;;;;;;0.70;0.70;;;;;;;10.80;100.00;96307.91;5029115;27;103094;-68
2022/12/24 08:42:45;;;;;;;0.63;0.63;;;;;;;10.81;100.00;96298.88;5028405;27;102559;-68
2022/12/24 08:45:13;;;;;;;0.60;0.50;;;;;;;10.82;100.00;96297.81;5030004;27;101750;-68
2022/12/24 08:47:40;;;;;;;0.70;0.57;;;;;;;10.84;100.00;96309.81;5030862;28;103978;-68
2022/12/24 08:50:08;;;;;;;0.57;0.57;;;;;;;10.89;100.00;96317.00;5013563;28;105959;-68
2022/12/24 08:52:36;;;;;;;0.40;0.40;;;;;;;10.90;100.00;96308.78;5030836;28;102041;-68
2022/12/24 08:55:03;;;;;;;0.50;0.50;;;;;;;10.91;100.00;96309.59;5032223;27;102296;-68
2022/12/24 08:57:30;;;;;;;0.63;0.37;;;;;;;10.89;100.00;96317.84;5033369;28;105091;-68
2022/12/24 08:59:59;;;;;;;1.07;0.80;;;;;;;10.88;100.00;96320.75;5032189;27;102479;-68
2022/12/24 09:02:26;;;;;;;0.97;0.77;;;;;;;10.93;100.00;96323.44;5029803;28;104135;-68
2022/12/24 09:04:53;;;;;;;1.10;0.80;;;;;;;10.93;100.00;96332.25;5030720;28;101855;-67
2022/12/24 09:07:19;;;;;;;0.60;0.60;;;;;;;11.01;100.00;96330.97;5031957;27;102344;-68
2022/12/24 09:09:47;;;;;;;0.50;0.50;;;;;;;11.06;100.00;96339.78;5029652;28;105574;-67
2022/12/24 09:12:14;;;;;;;2.40;0.70;;;;;;;11.09;100.00;96339.28;5030669;28;101952;-67
2022/12/24 09:14:41;;;;;;;0.57;0.57;;;;;;;11.11;100.00;96342.50;5030710;28;105134;-67
2022/12/24 09:17:09;;;;;;;0.70;0.70;;;;;;;11.11;100.00;96350.47;5031063;27;102577;-67
2022/12/24 09:19:36;;;;;;;0.80;0.80;;;;;;;11.13;100.00;96355.53;5033853;28;102250;-67
2022/12/24 09:22:03;;;;;;;2.07;1.20;;;;;;;11.15;100.00;96359.56;5029721;28;105135;-67
2022/12/24 09:24:31;;;;;;;1.53;0.93;;;;;;;11.15;100.00;96364.88;5031900;27;101996;-67
2022/12/24 09:26:58;;;;;;;1.97;1.13;;;;;;;11.16;100.00;96371.81;5031079;28;102343;-67
2022/12/24 09:29:25;;;;;;;0.70;0.70;;;;;;;11.18;100.00;96369.69;5031396;27;102580;-67
2022/12/24 09:31:53;;;;;;;2.30;0.50;;;;;;;11.25;100.00;96361.50;5031755;27;102325;-67
2022/12/24 09:34:22;;;;;;;0.60;0.60;;;;;;;11.25;100.00;96375.63;5030432;28;102928;-67
2022/12/24 09:36:50;;;;;;;0.93;0.70;;;;;;;11.27;100.00;96388.66;5029836;28;105992;-67
2022/12/24 09:39:17;;;;;;;0.80;0.80;;;;;;;11.34;100.00;96379.41;5030341;28;101908;-67
2022/12/24 09:41:53;;;;;;;0.83;0.80;;;;;;;11.36;100.00;96392.47;5034163;27;102325;-67
2022/12/24 09:44:33;;;;;;;1.10;0.73;;;;;;;11.38;100.00;96388.47;5032001;27;101770;-67
2022/12/24 09:47:03;;;;;;;0.93;0.70;;;;;;;11.37;100.00;96383.41;5030256;28;105132;-67
2022/12/24 09:49:40;;;;;;;1.03;0.70;;;;;;;11.37;100.00;96378.09;5029530;28;105219;-67
2022/12/24 09:52:10;;;;;;;1.37;0.80;;;;;;;11.36;100.00;96390.59;5029856;28;101926;-67
2022/12/24 09:54:41;;;;;;;2.50;1.07;;;;;;;11.38;100.00;96388.47;5030180;28;105226;-67
2022/12/24 09:57:16;;;;;;;1.70;0.80;;;;;;;11.38;100.00;96398.31;5029046;27;105364;-67
2022/12/24 09:59:45;;;;;;;1.00;0.70;;;;;;;11.40;100.00;96390.91;5031678;27;101743;-67
2022/12/24 10:02:14;;;;;;;1.77;0.50;;;;;;;11.40;100.00;96390.91;5030843;27;102568;-67
2022/12/24 10:04:44;;;;;;;3.30;0.80;;;;;;;11.38;100.00;96387.66;5034190;28;102620;-67
2022/12/24 10:07:25;;;;;;;1.80;0.90;;;;;;;11.40;100.00;96388.22;5030875;27;101792;-67
2022/12/24 10:10:00;;;;;;;1.47;0.70;;;;;;;11.41;100.00;96405.81;5030828;27;102751;-67
2022/12/24 10:12:34;;;;;;;2.13;0.70;;;;;;;11.47;100.00;96389.63;5029849;28;102478;-67
2022/12/24 10:15:10;;;;;;;1.13;0.70;;;;;;;11.49;100.00;96384.03;5031287;27;102874;-67
2022/12/24 10:17:51;;;;;;;3.43;0.70;;;;;;;11.49;100.00;96381.34;5028805;28;103728;-67
2022/12/24 10:20:47;;;;;;;2.13;0.83;;;;;;;11.48;100.00;96379.75;5029694;28;101778;-68
2022/12/24 10:23:24;;;;;;;1.00;0.70;;;;;;;11.55;100.00;96372.38;5029332;28;105319;-67
2022/12/24 10:25:59;;;;;;;1.17;1.00;;;;;;;11.52;100.00;96372.88;5028368;28;103849;-68
2022/12/24 10:28:32;;;;;;;3.37;0.77;;;;;;;11.55;100.00;96383.03;5033110;28;101819;-67
2022/12/24 10:31:03;;;;;;;1.97;1.33;;;;;;;11.53;100.00;96383.28;5028876;28;104315;-67
2022/12/24 10:33:37;;;;;;;3.07;1.43;;;;;;;11.40;100.00;96377.59;5030985;27;101807;-67
2022/12/24 10:36:10;;;;;;;1.30;1.20;;;;;;;11.34;100.00;96384.72;5013556;28;104501;-67
2022/12/24 10:38:37;;;;;;;1.87;1.23;;;;;;;11.36;100.00;96376.47;5028582;28;105926;-67
2022/12/24 10:41:04;;;;;;;1.10;0.90;;;;;;;11.30;100.00;96377.50;5029553;28;102455;-67
2022/12/24 10:43:32;;;;;;;1.07;0.80;;;;;;;11.32;100.00;96380.69;5030752;27;102781;-67
2022/12/24 10:46:03;;;;;;;1.43;0.70;;;;;;;11.26;100.00;96385.19;5030254;27;103174;-67
2022/12/24 10:48:37;;;;;;;1.00;0.70;;;;;;;11.31;100.00;96390.56;5034037;27;101881;-67
2022/12/24 10:51:13;;;;;;;1.47;0.90;;;;;;;11.30;100.00;96383.66;5028233;28;103796;-67
2022/12/24 10:53:44;;;;;;;1.13;1.00;;;;;;;11.29;100.00;96386.56;5028916;28;101849;-67
2022/12/24 10:56:15;;;;;;;1.40;1.30;;;;;;;11.31;100.00;96393.22;5030480;27;102885;-67
2022/12/24 10:58:45;;;;;;;2.03;1.50;;;;;;;11.24;100.00;96383.84;5028668;28;105708;-67
2022/12/24 11:01:12;;;;;;;2.03;1.10;;;;;;;11.14;100.00;96376.59;5030225;28;101815;-67
2022/12/24 11:03:41;;;;;;;3.23;2.93;;;;;;;11.21;100.00;96373.69;5028739;28;105145;-67
2022/12/24 11:06:12;;;;;;;1.93;1.73;;;;;;;11.13;100.00;96371.50;5029829;28;103181;-67
2022/12/24 11:08:41;;;;;;;2.23;2.00;;;;;;;11.17;100.00;96383.28;5028069;27;102243;-67
2022/12/24 11:11:11;;;;;;;3.10;2.50;;;;;;;11.20;100.00;96369.44;5031459;28;105163;-67
2022/12/24 11:13:41;;;;;;;3.10;1.70;;;;;;;11.17;100.00;96372.63;5028721;28;101928;-67
2022/12/24 11:16:15;;;;;;;2.13;1.23;;;;;;;11.24;100.00;96383.84;5028851;28;105291;-67
2022/12/24 11:18:47;;;;;;;2.37;1.30;;;;;;;11.27;100.00;96383.31;5030009;28;102711;-67
2022/12/24 11:21:22;;;;;;;4.57;2.63;;;;;;;11.26;100.00;96382.53;5028378;28;101793;-67
2022/12/24 11:23:53;;;;;;;4.07;2.13;;;;;;;11.25;100.00;96380.94;5029487;27;101692;-67
2022/12/24 11:26:26;;;;;;;3.33;2.23;;;;;;;11.29;100.00;96386.56;5029545;27;102468;-67
2022/12/24 11:29:11;;;;;;;6.07;3.27;;;;;;;11.29;100.00;96387.34;5028594;28;101811;-67
2022/12/24 11:31:38;;;;;;;2.73;1.73;;;;;;;11.34;100.00;96383.94;5028334;28;105837;-67
2022/12/24 11:34:19;;;;;;;1.80;1.40;;;;;;;11.42;100.00;96399.41;5032891;27;103078;-67
2022/12/24 11:36:48;;;;;;;3.87;1.43;;;;;;;11.48;100.00;96393.06;5030334;27;102313;-67